Aviation Digital Data Service (ADDS)

Output produced by METARs form (1854 UTC 19 September 2017)
found at http://www.aviationweather.gov/adds/metars/
 
UBBB 191830Z 18006KT CAVOK 23/21 Q1015 R88/D NOSIG
TAF UBBB 191704Z 1918/2018 16008KT CAVOK TX31/2010Z TN19/2001Z 
     TEMPO 1921/2004 2000 BR SCT006
       
UBBG 191830Z 26004KT 9999 FEW100 23/08 Q1017 R30/CLRD// NOSIG
TAF UBBG 191700Z 1918/2018 VRB04KT 9999 SCT040 BKN100 TX31/2012Z TN18/2002Z 
     BECMG 2008/2010 09010KT
       
UBBL 191800Z 15008KT 9999 NSC 25/19 Q1015 R15/CLRD// NOSIG RMK MT OP
TAF UBBL 191706Z 1918/2018 15012KT 9999 NSC TX32/2010Z TN15/2002Z 
     TEMPO 1921/2003 3000 BR SCT008
       
UBBN 191830Z 09008KT 9999 FEW050 SCT100 27/M01 Q1015 R14R/CLRD// NOSIG RMK MT OP QFE686
TAF UBBN 191707Z 1918/2018 06006KT 9999 FEW050 SCT100 TX35/2012Z TN20/2002Z 
     TEMPO 1918/2002 13012KT
       
UBBQ 191800Z 16002KT 9999 NSC 20/08 Q1018 R16/CLRD// NOSIG RMK MT OP
TAF UBBQ 191705Z 1918/2018 07006KT 9999 NSC TX31/2010Z TN14/2002Z 
     TEMPO 1922/2004 VRB04KT 3000 BR SCT005
       
UBBY 191800Z 08007KT 9999 NSC 24/07 Q1021 R33/////// NOSIG RMK MT OP
TAF UBBY 191700Z 1918/2003 VRB04KT 9999 FEW100
       
UBEE 191500Z 16003KT CAVOK 27/14 Q1014 R30/CLRD// NOSIG
TAF UBEE 191400Z 1915/1924 VRB04KT CAVOK
       
UBBB 191830Z 18006KT CAVOK 23/21 Q1015 R88/D NOSIG
TAF UBBB 191704Z 1918/2018 16008KT CAVOK TX31/2010Z TN19/2001Z 
     TEMPO 1921/2004 2000 BR SCT006
       
UBBG 191830Z 26004KT 9999 FEW100 23/08 Q1017 R30/CLRD// NOSIG
TAF UBBG 191700Z 1918/2018 VRB04KT 9999 SCT040 BKN100 TX31/2012Z TN18/2002Z 
     BECMG 2008/2010 09010KT